Stations météo

Publicité
Embrun, France (7591): Température de l'air & dewpoint: 18.05.2017 11:00:00 - 24.05.2017 11:00:00 (CEST)Embrun, France (7591): Température de l'air 5cm: 18.05.2017 11:00:00 - 24.05.2017 11:00:00 (CEST)Embrun, France (7591): Température de l'air -20cm & Température de l'air -100cm: 18.05.2017 11:00:00 - 24.05.2017 11:00:00 (CEST)Embrun, France (7591): Vitesse du vent & gusts: 18.05.2017 11:00:00 - 24.05.2017 11:00:00 (CEST)Embrun, France (7591): Direction du vent: 18.05.2017 11:00:00 - 24.05.2017 11:00:00 (CEST)Embrun, France (7591): visibility: 18.05.2017 11:00:00 - 24.05.2017 11:00:00 (CEST)Embrun, France (7591): Ensoleillement: 18.05.2017 11:00:00 - 24.05.2017 11:00:00 (CEST)Embrun, France (7591): Quantités de précipitations: 18.05.2017 11:00:00 - 24.05.2017 11:00:00 (CEST)
Date & Time tt [°C] td [°C] tt 5cm [°C] tt -20cm [°C] tt -100cm [°C] ff [km/h] ff [knt] fx [km/h] fx [knt] dd vv [km] sd [min] rr [mm]
24.05.2017 11:00:00 21,2 8,5 28,2 15,6 13,0 7 4 18 10 S 20 60 0,0
24.05.2017 10:00:00 19,6 7,7 17,4 15,7 13,1 13 7 26 14 NNE 20 60 0,0
24.05.2017 09:00:00 18,1 7,5 14,1 15,7 13,0 16 8 32 17 NNE 20 60 0,0
24.05.2017 08:00:00 15,2 6,5 10,6 15,8 13,0 16 9 37 20 NNE 20 32 0,0
24.05.2017 07:00:00 14,0 5,6 10,4 15,9 13,0 16 9 29 15 NNE 20 0 0,0
24.05.2017 06:00:00 13,9 5,5 9,1 15,9 13,0 13 7 26 14 NNE 20 0 0,0
24.05.2017 05:00:00 14,7 5,7 6,8 16,0 13,0 18 10 29 16 N 20 0 0,0
24.05.2017 04:00:00 14,0 6,1 7,2 16,0 13,0 5 3 22 12 NE 20 0 0,0
24.05.2017 03:00:00 12,6 7,9 5,7 16,0 13,0 7 4 13 7 ENE 20 0 0,0
24.05.2017 02:00:00 14,1 8,3 6,7 16,0 13,0 6 3 11 6 NNE 20 0 0,0
24.05.2017 01:00:00 14,7 8,9 7,7 16,0 13,0 5 3 7 4 NNW 20 0 0,0
24.05.2017 00:00:00 15,9 9,1 9,5 15,9 13,0 3 2 10 5 NNW 20 0 0,0
23.05.2017 23:00:00 16,8 8,7 10,2 15,9 13,0 6 3 9 5 N 20 0 0,0
23.05.2017 22:00:00 18,4 9,2 12,0 15,8 13,0 3 2 16 9 WNW 20 0 0,0
23.05.2017 21:00:00 20,6 9,5 17,4 15,7 13,0 6 4 21 11 S 20 0 0,0
23.05.2017 20:00:00 22,6 8,3 21,1 15,6 13,0 12 7 24 13 SSW 20 40 0,0
23.05.2017 19:00:00 24,8 7,4 25,7 15,5 13,0 14 7 38 21 SSW 20 60 0,0
23.05.2017 18:00:00 25,9 5,5 26,4 15,4 13,0 16 9 36 19 SW 20 60 0,0
23.05.2017 17:00:00 26,3 4,7 30,9 15,4 13,0 16 9 33 18 SW 20 60 0,0
23.05.2017 16:00:00 26,8 3,3 34,2 15,2 12,9 17 9 33 18 SW 20 60 0,0
23.05.2017 15:00:00 26,0 5,0 34,6 15,2 13,0 16 9 31 17 SSW 20 60 0,0
23.05.2017 14:00:00 24,8 7,4 29,0 15,2 12,9 13 7 24 13 S 20 57 0,0
23.05.2017 13:00:00 23,4 7,5 30,0 15,2 13,0 12 7 23 13 SSW 20 60 0,0
23.05.2017 12:00:00 21,4 5,3 31,2 15,2 12,9 11 6 21 11 SSW 20 60 0,0
23.05.2017 11:00:00 20,1 4,6 28,1 15,2 12,9 8 4 20 11 SSW 20 60 0,0
23.05.2017 10:00:00 18,5 4,6 16,0 15,3 12,9 9 5 29 16 ENE 20 60 0,0
23.05.2017 09:00:00 15,9 3,3 12,4 15,4 13,0 17 9 33 18 NNE 20 60 0,0
23.05.2017 08:00:00 14,0 3,7 9,0 15,4 12,9 13 7 34 18 NNE 20 29 0,0
23.05.2017 07:00:00 11,9 2,9 8,1 15,5 12,9 12 7 33 18 NNE 20 0 0,0
23.05.2017 06:00:00 12,5 3,2 9,4 15,5 12,9 22 12 33 18 N 20 0 0,0
23.05.2017 05:00:00 12,4 4,1 9,8 15,5 12,9 19 10 39 21 N 20 0 0,0
23.05.2017 04:00:00 12,8 4,2 6,3 15,6 12,9 18 10 32 18 N 20 0 0,0
23.05.2017 03:00:00 10,9 5,4 4,2 15,6 12,9 11 6 17 9 NE 20 0 0,0
23.05.2017 02:00:00 11,6 6,1 5,1 15,6 12,9 4 2 8 5 NNW 20 0 0,0
23.05.2017 01:00:00 12,5 6,1 5,2 15,6 12,9 3 2 10 5 N 20 0 0,0
23.05.2017 00:00:00 13,4 6,5 5,6 15,6 12,9 3 2 6 3 N 20 0 0,0
22.05.2017 23:00:00 15,1 6,4 7,7 15,5 12,9 3 1 8 4 NNE 20 0 0,0
22.05.2017 22:00:00 16,2 6,6 9,6 15,5 12,9 6 3 8 5 N 20 0 0,0
22.05.2017 21:00:00 18,8 6,3 13,8 15,4 12,9 3 1 18 10 SW 20 0 0,0
22.05.2017 20:00:00 20,0 6,3 18,2 15,3 12,9 7 4 20 11 S 20 35 0,0
22.05.2017 19:00:00 21,9 3,0 22,2 15,2 12,9 11 6 24 13 SSW 20 60 0,0
22.05.2017 18:00:00 23,1 2,5 24,5 15,1 12,9 14 8 28 15 SSW 20 60 0,0
22.05.2017 17:00:00 22,8 6,1 25,4 15,0 12,9 13 7 34 18 SSW 20 60 0,0
22.05.2017 16:00:00 22,3 6,5 27,2 14,9 12,8 16 9 35 19 SSW 20 60 0,0
22.05.2017 15:00:00 22,8 7,3 29,1 14,9 12,9 18 10 39 21 SW 20 60 0,0
22.05.2017 14:00:00 22,1 7,9 28,1 14,9 12,9 22 12 37 20 SW 20 60 0,0
22.05.2017 13:00:00 21,7 8,6 28,5 14,9 12,8 21 12 34 18 SSW 20 60 0,0
22.05.2017 12:00:00 20,2 8,5 28,9 14,9 12,8 13 7 26 14 S 20 60 0,0
22.05.2017 11:00:00 18,3 7,1 25,1 15,0 12,8 8 5 13 7 SSW 20 60 0,0
22.05.2017 10:00:00 16,9 6,7 15,5 15,0 12,8 8 5 31 17 NNE 20 60 0,0
22.05.2017 09:00:00 14,6 5,9 11,9 15,1 12,8 16 8 33 18 NNE 20 60 0,0
22.05.2017 08:00:00 11,7 5,1 8,8 15,1 12,8 16 8 27 14 NE 20 28 0,0
22.05.2017 07:00:00 10,4 4,3 7,2 15,1 12,8 16 8 26 14 NNE 20 0 0,0
22.05.2017 06:00:00 11,1 3,9 6,8 15,2 12,8 18 10 30 16 NNE 20 0 0,0
22.05.2017 05:00:00 11,6 4,1 7,0 15,2 12,8 18 10 32 17 N 20 0 0,0
22.05.2017 04:00:00 10,9 4,8 6,1 15,2 12,8 13 7 25 13 NNE 20 0 0,0
22.05.2017 03:00:00 11,1 5,4 5,2 15,3 12,8 9 5 16 9 NE 20 0 0,0
22.05.2017 02:00:00 11,4 5,7 4,8 15,3 12,8 5 3 11 6 NNE 20 0 0,0
22.05.2017 01:00:00 12,3 6,1 5,6 15,2 12,8 5 3 8 5 N 20 0 0,0
22.05.2017 00:00:00 14,3 5,9 8,0 15,2 12,8 3 1 14 8 SSW 20 0 0,0
21.05.2017 23:00:00 15,6 5,8 12,6 15,2 12,8 7 4 18 10 SSW 20 0 0,0
21.05.2017 22:00:00 16,8 5,7 14,5 15,1 12,8 11 6 22 12 S 20 0 0,0
21.05.2017 21:00:00 18,3 5,2 15,2 15,0 12,8 6 3 14 8 S 20 0 0,0
21.05.2017 20:00:00 20,9 2,7 18,6 14,9 12,8 7 4 26 14 WSW 20 40 0,0
21.05.2017 19:00:00 22,6 1,6 22,9 14,8 12,8 13 7 34 18 SW 20 60 0,0
21.05.2017 18:00:00 22,9 2,4 23,7 14,7 12,8 18 10 35 19 SW 20 60 0,0
21.05.2017 17:00:00 23,8 2,6 29,2 14,6 12,8 13 7 29 16 SW 20 60 0,0
21.05.2017 16:00:00 22,6 2,1 29,9 14,5 12,8 16 9 32 17 SSW 20 60 0,0
21.05.2017 15:00:00 21,8 2,5 29,9 14,4 12,7 17 9 29 16 SSW 20 60 0,0
21.05.2017 14:00:00 21,3 2,0 28,5 14,4 12,7 15 8 32 17 SSW 20 60 0,0
21.05.2017 13:00:00 19,6 4,1 28,9 14,4 12,7 16 8 27 15 SSW 20 60 0,0
21.05.2017 12:00:00 18,1 2,0 29,1 14,5 12,7 8 4 16 8 SSW 20 60 0,0
21.05.2017 11:00:00 16,0 2,0 25,8 14,6 12,7 6 3 19 11 E 20 60 0,0
21.05.2017 10:00:00 13,8 1,7 10,6 14,6 12,7 8 4 23 13 NE 20 60 0,0
21.05.2017 09:00:00 11,4 1,1 6,5 14,7 12,7 12 6 29 16 NNE 20 60 0,0
21.05.2017 08:00:00 8,1 0,3 2,2 14,8 12,7 15 8 30 16 NE 20 26 0,0
21.05.2017 07:00:00 6,8 -0,9 1,1 14,9 12,7 17 9 33 18 NNE 20 0 0,0
21.05.2017 06:00:00 6,5 -0,7 0,8 14,9 12,7 16 8 26 14 NNE 20 0 0,0
21.05.2017 05:00:00 6,1 -0,2 0,0 15,0 12,7 12 7 19 11 NNE 20 0 0,0
21.05.2017 04:00:00 5,3 1,0 -1,7 15,0 12,7 8 4 10 5 NE 20 0 0,0
21.05.2017 03:00:00 6,0 1,9 -1,2 15,1 12,7 0 0 7 4 N 20 0 0,0
21.05.2017 02:00:00 6,2 2,6 -0,8 15,1 12,7 5 3 9 5 NNW 20 0 0,0
21.05.2017 01:00:00 7,4 3,3 1,1 15,1 12,7 0 0 10 6 N 20 0 0,0
21.05.2017 00:00:00 8,1 3,4 1,8 15,1 12,7 3 2 9 5 N 20 0 0,0
20.05.2017 23:00:00 9,1 3,9 2,3 15,1 12,7 4 2 7 4 N 20 0 0,0
20.05.2017 22:00:00 10,7 3,9 4,3 15,1 12,7 4 2 9 5 N 20 0 0,0
20.05.2017 21:00:00 12,3 3,5 6,4 15,0 12,7 4 2 15 8 N 20 0 0,0
20.05.2017 20:00:00 14,8 3,0 13,5 14,9 12,7 11 6 35 19 SW 20 39 0,0
20.05.2017 19:00:00 16,7 2,3 18,4 14,8 12,6 16 9 35 19 SW 20 60 0,0
20.05.2017 18:00:00 17,2 2,4 18,3 14,7 12,6 22 12 42 23 SW 20 60 0,0
20.05.2017 17:00:00 17,2 2,0 23,6 14,7 12,7 22 12 40 22 SSW 20 60 0,0
20.05.2017 16:00:00 17,7 2,4 24,7 14,6 12,6 19 11 40 21 SW 20 60 0,0
20.05.2017 15:00:00 16,9 2,1 24,8 14,6 12,6 24 13 46 25 SSW 20 60 0,0
20.05.2017 14:00:00 16,6 2,9 24,3 14,6 12,6 20 11 39 21 SSW 20 60 0,0
20.05.2017 13:00:00 15,6 3,1 23,9 14,6 12,6 21 11 36 19 SSW 20 60 0,0
20.05.2017 12:00:00 14,5 1,0 23,6 14,7 12,6 13 7 29 15 SSW 20 60 0,0
20.05.2017 11:00:00 13,1 3,5 19,9 14,7 12,6 11 6 21 12 SSW 20 60 0,0
20.05.2017 10:00:00 11,1 2,9 6,7 14,8 12,6 4 2 14 8 SW 20 60 0,0
20.05.2017 09:00:00 8,7 1,8 4,1 15,0 12,6 4 2 11 6 SSE 20 60 0,0
20.05.2017 08:00:00 5,6 2,1 -0,9 15,0 12,6 5 3 9 5 ENE 20 25 0,0
20.05.2017 07:00:00 3,1 1,0 -0,7 15,1 12,6 0 0 14 8 N 20 0 0,0
20.05.2017 06:00:00 2,8 0,8 -2,2 15,2 12,6 5 3 14 8 NE 20 0 0,0
20.05.2017 05:00:00 3,7 1,2 -2,2 15,3 12,6 3 2 5 3 NNE 20 0 0,0
20.05.2017 04:00:00 4,1 1,3 -0,6 15,3 12,6 3 1 9 5 SSE 20 0 0,0
20.05.2017 03:00:00 5,1 1,4 -1,6 15,3 12,5 5 3 10 5 N 20 0 0,0
20.05.2017 02:00:00 5,4 1,1 -0,7 15,4 12,5 2 1 8 4 N 20 0 0,0
20.05.2017 01:00:00 5,9 1,8 -0,3 15,4 12,5 3 2 5 3 NE 20 0 0,0
20.05.2017 00:00:00 7,2 1,7 0,8 15,4 12,5 0 0 8 4 N 20 0 0,0
19.05.2017 23:00:00 8,7 1,6 1,7 15,4 12,5 4 2 9 5 NNE 20 0 0,0
19.05.2017 22:00:00 10,1 0,7 6,7 15,4 12,5 4 2 25 14 S 20 0 0,0
19.05.2017 21:00:00 12,3 0,7 10,7 15,3 12,5 16 9 34 18 SW 20 0 0,0
19.05.2017 20:00:00 13,7 1,3 12,5 15,3 12,5 16 8 35 19 SSW 20 38 0,0
19.05.2017 19:00:00 16,1 1,8 17,2 15,2 12,5 16 9 35 19 SW 20 60 0,0
19.05.2017 18:00:00 16,9 1,3 18,2 15,1 12,5 19 10 36 19 WSW 20 60 0,0
19.05.2017 17:00:00 16,9 3,2 24,5 15,1 12,4 20 11 36 19 SW 20 60 0,0
19.05.2017 16:00:00 17,0 4,3 24,9 15,1 12,5 17 9 34 18 SW 20 60 0,0
19.05.2017 15:00:00 16,0 5,6 24,6 15,1 12,4 19 10 40 21 SW 20 60 0,0
19.05.2017 14:00:00 14,5 7,1 18,2 15,1 12,4 23 13 45 25 SSW 20 57 0,0
19.05.2017 13:00:00 12,7 9,1 13,3 15,1 12,4 16 8 41 22 SSW 18 5 0,0
19.05.2017 12:00:00 12,0 9,0 13,3 15,2 12,4 14 8 29 16 SSW 20 19 0,2
19.05.2017 11:00:00 12,2 8,1 12,5 15,2 12,4 4 2 13 7 SSE 20 35 0,0
19.05.2017 10:00:00 9,6 7,7 9,9 15,3 12,4 3 2 9 5 ESE 18 0 0,8
19.05.2017 09:00:00 9,4 7,5 8,6 15,3 12,4 5 3 9 5 NNW 20 0 2,0
19.05.2017 08:00:00 9,3 7,1 8,2 15,4 12,4 3 2 54 29 SSE 15 0 4,9
19.05.2017 07:00:00 10,8 8,2 9,7 15,4 12,4 14 8 40 22 SSW 19 0 1,2
19.05.2017 06:00:00 11,5 8,7 9,7 15,5 12,4 12 7 25 13 S 18 0 0,0
19.05.2017 05:00:00 12,3 7,6 9,6 15,5 12,4 4 2 13 7 N 20 0 0,0
19.05.2017 04:00:00 12,5 8,2 10,7 15,5 12,4 4 2 9 5 SE 20 0 0,0
19.05.2017 03:00:00 13,1 8,6 10,2 15,5 12,3 5 3 10 6 W 20 0 0,0
19.05.2017 02:00:00 12,9 8,4 10,2 15,6 12,3 3 2 8 5 ENE 20 0 0,0
19.05.2017 01:00:00 13,6 8,8 10,9 15,6 12,3 5 3 11 6 S 20 0 0,0
19.05.2017 00:00:00 14,6 8,3 11,1 15,5 12,3 3 2 7 4 N 20 0 0,0
18.05.2017 23:00:00 15,2 8,2 11,6 15,5 12,3 3 2 7 4 NNE 20 0 0,0
18.05.2017 22:00:00 16,2 8,2 13,6 15,5 12,3 4 2 17 9 WSW 20 0 0,0
18.05.2017 21:00:00 17,1 8,2 15,9 15,4 12,3 9 5 29 16 S 20 0 0,0
18.05.2017 20:00:00 18,7 8,9 18,7 15,4 12,2 12 6 28 15 S 20 14 0,0
18.05.2017 19:00:00 20,7 7,3 20,7 15,4 12,2 14 7 30 16 SSW 20 17 0,0
18.05.2017 18:00:00 21,4 5,7 22,1 15,3 12,2 18 10 34 19 W 20 2 0,0
18.05.2017 17:00:00 21,7 6,8 22,6 15,3 12,3 14 8 30 16 W 20 6 0,0
18.05.2017 16:00:00 22,5 7,5 23,9 15,2 12,2 15 8 25 14 SW 20 5 0,0
18.05.2017 15:00:00 21,2 10,7 22,8 15,2 12,2 11 6 23 13 SSW 20 0 0,0
18.05.2017 14:00:00 21,5 10,0 23,8 15,2 12,2 8 4 15 8 S 20 32 0,0
18.05.2017 13:00:00 20,3 10,1 23,0 15,2 12,2 9 5 22 12 SSW 20 2 0,0
18.05.2017 12:00:00 19,7 9,6 24,5 15,3 12,2 10 6 16 9 SSW 20 39 0,0
18.05.2017 11:00:00 17,3 9,7 19,0 15,3 12,2 6 4 11 6 SSW 20 5 0,0

tt = Température de l'air
td = dewpoint
tt 5cm = Température de l'air 5cm
tt -20cm = Température de l'air -20cm
tt -100cm = Température de l'air -100cm
ff = Vitesse du vent
fx = gusts
dd = Direction du vent
vv = visibility
sd = Ensoleillement
rr = Quantités de précipitations

stations d'obs. à proximité